createdAt,value
2017-04-17T03:00:35.473Z,1016.08
2017-04-17T03:01:01.093Z,1016.04
2017-04-17T03:01:26.673Z,1016.05
2017-04-17T03:01:52.261Z,1016.11
2017-04-17T03:02:17.931Z,1016.04
2017-04-17T03:02:43.498Z,1016.04
2017-04-17T03:03:09.052Z,1016.04
2017-04-17T03:03:34.883Z,1016.07
2017-04-17T03:04:00.899Z,1016.01
2017-04-17T03:04:26.454Z,1016.06
2017-04-17T03:04:52.081Z,1016.04
2017-04-17T03:05:17.672Z,1016.05
2017-04-17T03:05:43.251Z,1016.05
2017-04-17T03:06:08.822Z,1016.04
2017-04-17T03:06:34.381Z,1016.07
2017-04-17T03:07:00.044Z,1016.06
2017-04-17T03:07:25.614Z,1016.04
2017-04-17T03:07:51.177Z,1016.05
2017-04-17T03:08:16.752Z,1016.1
2017-04-17T03:08:42.331Z,1016.07
2017-04-17T03:09:07.896Z,1016.06
2017-04-17T03:09:33.465Z,1016.03
2017-04-17T03:09:59.024Z,1016.05
2017-04-17T03:10:24.605Z,1016.07
2017-04-17T03:10:50.162Z,1016.06
2017-04-17T03:11:15.734Z,1016.01
2017-04-17T03:11:41.312Z,1016.05
2017-04-17T03:12:06.869Z,1016.06
2017-04-17T03:12:32.493Z,1016.09
2017-04-17T03:12:58.051Z,1016.1
2017-04-17T03:13:23.612Z,1016.07
2017-04-17T03:13:49.317Z,1016.05
2017-04-17T03:14:14.913Z,1016.04
2017-04-17T03:14:40.482Z,1016.02
2017-04-17T03:15:06.120Z,1016.02
2017-04-17T03:15:31.733Z,1016.02
2017-04-17T03:15:57.283Z,1016.04
2017-04-17T03:16:22.923Z,1016.06
2017-04-17T03:16:48.474Z,1016.06
2017-04-17T03:17:14.087Z,1016.08
2017-04-17T03:17:39.688Z,1016.04
2017-04-17T03:18:05.261Z,1016.07
2017-04-17T03:18:30.832Z,1016.07
2017-04-17T03:18:56.397Z,1016.03
2017-04-17T03:19:22.038Z,1016.03
2017-04-17T03:19:47.602Z,1016.05
2017-04-17T03:20:13.173Z,1016
2017-04-17T03:20:38.734Z,1016.04
2017-04-17T03:21:04.303Z,1016.02
2017-04-17T03:21:29.887Z,1016.01
2017-04-17T03:21:55.462Z,1016.02
2017-04-17T03:22:21.031Z,1015.98
2017-04-17T03:22:46.595Z,1016.02
2017-04-17T03:23:12.309Z,1016.02
2017-04-17T03:23:37.862Z,1016.03
2017-04-17T03:24:03.421Z,1016.03
2017-04-17T03:24:28.983Z,1016.03
2017-04-17T03:24:54.548Z,1016.03
2017-04-17T03:25:20.192Z,1016.02
2017-04-17T03:25:45.743Z,1016.01
2017-04-17T03:26:11.301Z,1016.07
2017-04-17T03:26:36.859Z,1016
2017-04-17T03:27:02.470Z,1016.02
2017-04-17T03:27:28.036Z,1016.04
2017-04-17T03:27:53.595Z,1016
2017-04-17T03:28:19.160Z,1016.07
2017-04-17T03:28:44.885Z,1016.01
2017-04-17T03:29:10.435Z,1016.05
2017-04-17T03:29:36.026Z,1016.04
2017-04-17T03:30:01.600Z,1016.03
2017-04-17T03:30:27.151Z,1016.02
2017-04-17T03:30:52.721Z,1016.03
2017-04-17T03:31:18.290Z,1016.02
2017-04-17T03:31:43.839Z,1016.06
2017-04-17T03:32:09.496Z,1016.07
2017-04-17T03:32:35.071Z,1016.01
2017-04-17T03:33:00.640Z,1016.03
2017-04-17T03:33:26.201Z,1016.04
2017-04-17T03:33:51.767Z,1016.05
2017-04-17T03:34:17.331Z,1016.03
2017-04-17T03:34:42.888Z,1016.06
2017-04-17T03:35:08.452Z,1016.03
2017-04-17T03:35:34.000Z,1016.02
2017-04-17T03:35:59.632Z,1016
2017-04-17T03:36:25.196Z,1016.02
2017-04-17T03:36:50.810Z,1016.02
2017-04-17T03:37:16.420Z,1016.04
2017-04-17T03:37:41.981Z,1016
2017-04-17T03:38:07.555Z,1016.03
2017-04-17T03:38:33.132Z,1016.03
2017-04-17T03:38:58.757Z,1016.03
2017-04-17T03:39:24.312Z,1016.02
2017-04-17T03:39:50.012Z,1016
2017-04-17T03:40:15.602Z,1016.01
2017-04-17T03:40:41.158Z,1015.99
2017-04-17T03:41:06.717Z,1015.99
2017-04-17T03:41:32.346Z,1016.08
2017-04-17T03:41:57.909Z,1016.04
2017-04-17T03:42:23.474Z,1016.02
2017-04-17T03:42:49.031Z,1016.02
2017-04-17T03:43:14.593Z,1016.02
2017-04-17T03:43:40.343Z,1016.04
2017-04-17T03:44:06.054Z,1016.04
2017-04-17T03:44:31.643Z,1016
2017-04-17T03:44:57.202Z,1016.01
2017-04-17T03:45:22.768Z,1016.03
2017-04-17T03:45:48.326Z,1016.02
2017-04-17T03:46:13.932Z,1016
2017-04-17T03:46:39.520Z,1016.02
2017-04-17T03:47:05.074Z,1016
2017-04-17T03:47:30.638Z,1016
2017-04-17T03:47:56.187Z,1016
2017-04-17T03:48:21.771Z,1016.01
2017-04-17T03:48:47.332Z,1015.98
2017-04-17T03:49:12.911Z,1015.98
2017-04-17T03:49:38.458Z,1016
2017-04-17T03:50:04.023Z,1015.99
2017-04-17T03:50:29.592Z,1015.99
2017-04-17T03:50:55.148Z,1016.01
2017-04-17T03:51:20.700Z,1016.01
2017-04-17T03:51:46.269Z,1016.01
2017-04-17T03:52:11.842Z,1016
2017-04-17T03:52:37.417Z,1016.01
2017-04-17T03:53:02.990Z,1015.99
2017-04-17T03:53:28.551Z,1015.98
2017-04-17T03:53:54.152Z,1016.02
2017-04-17T03:54:19.791Z,1016
2017-04-17T03:54:45.362Z,1015.97
2017-04-17T03:55:10.923Z,1015.97
2017-04-17T03:55:36.505Z,1015.99
2017-04-17T03:56:02.080Z,1015.96
2017-04-17T03:56:27.744Z,1015.96
2017-04-17T03:56:53.303Z,1016
2017-04-17T03:57:18.863Z,1015.95
2017-04-17T03:57:44.429Z,1015.99
2017-04-17T03:58:47.929Z,1016.01
2017-04-17T03:59:13.493Z,1015.97
2017-04-17T03:59:39.055Z,1016
2017-04-17T04:00:04.621Z,1015.99
2017-04-17T04:00:30.178Z,1015.97
2017-04-17T04:00:55.748Z,1015.96
2017-04-17T04:01:21.312Z,1016.02
2017-04-17T04:01:46.890Z,1015.99
2017-04-17T04:02:12.572Z,1016
2017-04-17T04:02:38.139Z,1015.98
2017-04-17T04:03:03.708Z,1015.98
2017-04-17T04:03:29.390Z,1015.97
2017-04-17T04:03:54.962Z,1015.99
2017-04-17T04:04:20.522Z,1015.99
2017-04-17T04:04:46.089Z,1016
2017-04-17T04:05:11.715Z,1015.99
2017-04-17T04:05:37.269Z,1016.01
2017-04-17T04:06:02.831Z,1016
2017-04-17T04:06:28.403Z,1016
2017-04-17T04:06:53.981Z,1015.98
2017-04-17T04:07:19.549Z,1015.98
2017-04-17T04:07:45.158Z,1015.99
2017-04-17T04:08:10.722Z,1016
2017-04-17T04:08:36.312Z,1015.98
2017-04-17T04:09:01.872Z,1015.99
2017-04-17T04:09:27.437Z,1016
2017-04-17T04:09:53.002Z,1016
2017-04-17T04:10:18.620Z,1015.99
2017-04-17T04:10:44.202Z,1015.98
2017-04-17T04:11:09.766Z,1015.99
2017-04-17T04:11:35.347Z,1015.96
2017-04-17T04:12:00.913Z,1015.94
2017-04-17T04:12:26.473Z,1015.96
2017-04-17T04:12:52.032Z,1015.99
2017-04-17T04:13:17.597Z,1015.97
2017-04-17T04:13:43.182Z,1015.98
2017-04-17T04:14:08.748Z,1015.97
2017-04-17T04:14:34.295Z,1015.97
2017-04-17T04:14:59.872Z,1015.94
2017-04-17T04:15:25.714Z,1015.95
2017-04-17T04:15:51.273Z,1015.97
2017-04-17T04:16:16.843Z,1015.97
2017-04-17T04:16:42.524Z,1015.95
2017-04-17T04:17:08.093Z,1015.94
2017-04-17T04:17:33.680Z,1015.96
2017-04-17T04:17:59.253Z,1015.97
2017-04-17T04:18:24.815Z,1015.94
2017-04-17T04:18:50.459Z,1015.96
2017-04-17T04:19:16.019Z,1015.93
2017-04-17T04:19:41.581Z,1015.93
2017-04-17T04:20:07.149Z,1015.99
2017-04-17T04:20:32.724Z,1015.96
2017-04-17T04:20:58.283Z,1015.95
2017-04-17T04:21:23.839Z,1015.91
2017-04-17T04:21:49.437Z,1015.92
2017-04-17T04:22:15.006Z,1015.91
2017-04-17T04:22:40.571Z,1015.88
2017-04-17T04:23:06.175Z,1015.91
2017-04-17T04:23:31.735Z,1015.89
2017-04-17T04:23:57.315Z,1015.91
2017-04-17T04:24:22.873Z,1015.9
2017-04-17T04:24:48.432Z,1015.93
2017-04-17T04:25:14.072Z,1015.88
2017-04-17T04:25:39.681Z,1015.92
2017-04-17T04:26:05.238Z,1015.89
2017-04-17T04:26:30.803Z,1015.91
2017-04-17T04:26:56.479Z,1015.93
2017-04-17T04:27:22.027Z,1015.88
2017-04-17T04:27:47.598Z,1015.93
2017-04-17T04:28:13.156Z,1015.91
2017-04-17T04:28:38.752Z,1015.91
2017-04-17T04:29:04.320Z,1015.91
2017-04-17T04:29:29.903Z,1015.86
2017-04-17T04:29:55.459Z,1015.89
2017-04-17T04:30:21.015Z,1015.88
2017-04-17T04:30:46.572Z,1015.88
2017-04-17T04:31:12.141Z,1015.89
2017-04-17T04:31:37.715Z,1015.87
2017-04-17T04:32:03.429Z,1015.87
2017-04-17T04:32:29.021Z,1015.91
2017-04-17T04:32:54.586Z,1015.86
2017-04-17T04:33:20.303Z,1015.88
2017-04-17T04:33:45.887Z,1015.9
2017-04-17T04:34:11.468Z,1015.88
2017-04-17T04:34:37.053Z,1015.87
2017-04-17T04:35:02.605Z,1015.89
2017-04-17T04:35:28.162Z,1015.83
2017-04-17T04:35:53.750Z,1015.9
2017-04-17T04:36:19.342Z,1015.9
2017-04-17T04:36:44.901Z,1015.94
2017-04-17T04:37:10.463Z,1015.88
2017-04-17T04:37:36.021Z,1015.87
2017-04-17T04:38:01.576Z,1015.91
2017-04-17T04:38:27.232Z,1015.9
2017-04-17T04:38:52.795Z,1015.92
2017-04-17T04:39:18.441Z,1015.93
2017-04-17T04:39:44.043Z,1015.89
2017-04-17T04:40:09.621Z,1015.86
2017-04-17T04:40:35.183Z,1015.89
2017-04-17T04:41:00.743Z,1015.93
2017-04-17T04:41:26.319Z,1015.92
2017-04-17T04:41:51.897Z,1015.89
2017-04-17T04:42:17.462Z,1015.88
2017-04-17T04:42:43.011Z,1015.91
2017-04-17T04:43:08.598Z,1015.9
2017-04-17T04:43:34.216Z,1015.93
2017-04-17T04:43:59.769Z,1015.88
2017-04-17T04:44:25.329Z,1015.95
2017-04-17T04:44:50.902Z,1015.92
2017-04-17T04:45:16.677Z,1015.9
2017-04-17T04:45:42.230Z,1015.94
2017-04-17T04:46:07.787Z,1015.92
2017-04-17T04:46:33.394Z,1015.94
2017-04-17T04:46:58.961Z,1015.96
2017-04-17T04:47:24.523Z,1015.98
2017-04-17T04:47:50.087Z,1015.95
2017-04-17T04:48:15.643Z,1015.97
2017-04-17T04:48:41.229Z,1015.97
2017-04-17T04:49:06.783Z,1015.95
2017-04-17T04:49:32.351Z,1015.96
2017-04-17T04:50:35.886Z,1015.97
2017-04-17T04:51:01.453Z,1015.97
2017-04-17T04:51:26.998Z,1015.95
2017-04-17T04:51:52.648Z,1015.99
2017-04-17T04:52:18.197Z,1015.95
2017-04-17T04:52:43.741Z,1015.97
2017-04-17T04:53:09.334Z,1015.98
2017-04-17T04:53:34.982Z,1015.95
2017-04-17T04:54:00.566Z,1015.95
2017-04-17T04:54:26.182Z,1015.98
2017-04-17T04:54:51.769Z,1015.98
2017-04-17T04:55:17.336Z,1015.97
2017-04-17T04:55:43.006Z,1015.95
2017-04-17T04:56:08.627Z,1015.97
2017-04-17T04:56:34.184Z,1015.95
2017-04-17T04:56:59.774Z,1015.97
2017-04-17T04:57:25.337Z,1015.95
2017-04-17T04:57:50.951Z,1015.97
2017-04-17T04:58:16.531Z,1015.96
2017-04-17T04:58:42.171Z,1015.98
2017-04-17T04:59:07.743Z,1015.98
2017-04-17T04:59:33.314Z,1015.99
2017-04-17T04:59:58.883Z,1015.97
2017-04-17T05:00:24.475Z,1015.98
2017-04-17T05:00:50.061Z,1015.98
2017-04-17T05:01:15.634Z,1015.99
2017-04-17T05:01:41.176Z,1016.02
2017-04-17T05:02:06.719Z,1016.01
2017-04-17T05:02:32.278Z,1015.98
2017-04-17T05:02:57.839Z,1015.97
2017-04-17T05:03:23.410Z,1015.96
2017-04-17T05:03:48.949Z,1015.97
2017-04-17T05:04:14.519Z,1015.99
2017-04-17T05:04:40.123Z,1015.96
2017-04-17T05:05:05.752Z,1016.01
2017-04-17T05:05:31.286Z,1016
2017-04-17T05:05:56.852Z,1015.95
2017-04-17T05:06:22.546Z,1015.96
2017-04-17T05:06:48.101Z,1015.96
2017-04-17T05:07:13.660Z,1015.95
2017-04-17T05:07:39.360Z,1015.93
2017-04-17T05:08:04.912Z,1015.96
2017-04-17T05:08:30.472Z,1015.98
2017-04-17T05:08:56.238Z,1015.95
2017-04-17T05:09:21.792Z,1015.94
2017-04-17T05:09:47.353Z,1015.93
2017-04-17T05:10:12.918Z,1015.94
2017-04-17T05:10:38.592Z,1015.93
2017-04-17T05:11:04.155Z,1015.91
2017-04-17T05:11:29.707Z,1016.01
2017-04-17T05:11:55.281Z,1015.97
2017-04-17T05:12:20.872Z,1015.95
2017-04-17T05:12:46.429Z,1015.95
2017-04-17T05:13:11.986Z,1015.96
2017-04-17T05:13:37.542Z,1015.96
2017-04-17T05:14:03.172Z,1015.96
2017-04-17T05:14:28.743Z,1015.94
2017-04-17T05:14:54.313Z,1015.94
2017-04-17T05:15:19.907Z,1015.94
2017-04-17T05:15:45.489Z,1015.92
2017-04-17T05:16:11.060Z,1015.91
2017-04-17T05:16:36.632Z,1015.92
2017-04-17T05:17:02.322Z,1015.91
2017-04-17T05:17:27.899Z,1015.93
2017-04-17T05:17:53.465Z,1015.95
2017-04-17T05:18:19.024Z,1015.91
2017-04-17T05:18:44.598Z,1015.92
2017-04-17T05:19:10.200Z,1015.9
2017-04-17T05:19:35.755Z,1015.9
2017-04-17T05:20:01.319Z,1015.89
2017-04-17T05:20:26.882Z,1015.92
2017-04-17T05:20:52.508Z,1015.88
2017-04-17T05:21:18.055Z,1015.92
2017-04-17T05:21:43.627Z,1015.93
2017-04-17T05:22:09.193Z,1015.91
2017-04-17T05:22:34.752Z,1015.95
2017-04-17T05:23:00.322Z,1015.91
2017-04-17T05:23:25.890Z,1015.89
2017-04-17T05:23:51.451Z,1015.91
2017-04-17T05:24:17.012Z,1015.92
2017-04-17T05:24:42.603Z,1015.89
2017-04-17T05:25:08.151Z,1015.92
2017-04-17T05:25:33.706Z,1015.89
2017-04-17T05:25:59.275Z,1015.9
2017-04-17T05:26:24.832Z,1015.88
2017-04-17T05:26:50.439Z,1015.89
2017-04-17T05:27:16.028Z,1015.92
2017-04-17T05:27:41.593Z,1015.89
2017-04-17T05:28:07.253Z,1015.89
2017-04-17T05:28:32.821Z,1015.85
2017-04-17T05:28:58.396Z,1015.88
2017-04-17T05:29:23.960Z,1015.91
2017-04-17T05:29:49.538Z,1015.89
2017-04-17T05:30:15.092Z,1015.9
2017-04-17T05:30:40.652Z,1015.89
2017-04-17T05:31:06.214Z,1015.86
2017-04-17T05:31:31.783Z,1015.87
2017-04-17T05:31:57.420Z,1015.9
2017-04-17T05:32:22.997Z,1015.9
2017-04-17T05:32:48.556Z,1015.89
2017-04-17T05:33:14.241Z,1015.9
2017-04-17T05:33:39.794Z,1015.91
2017-04-17T05:34:05.364Z,1015.92
2017-04-17T05:34:30.939Z,1015.93
2017-04-17T05:34:56.515Z,1015.92
2017-04-17T05:35:22.078Z,1015.92
2017-04-17T05:35:47.632Z,1015.92
2017-04-17T05:36:13.199Z,1015.89
2017-04-17T05:36:38.755Z,1015.91
2017-04-17T05:37:04.322Z,1015.9
2017-04-17T05:37:29.901Z,1015.91
2017-04-17T05:37:55.460Z,1015.92
2017-04-17T05:38:21.028Z,1015.9
2017-04-17T05:38:46.581Z,1015.9
2017-04-17T05:40:00.413Z,1015.94
2017-04-17T05:40:25.975Z,1015.91
2017-04-17T05:40:51.524Z,1015.94
2017-04-17T05:41:17.289Z,1015.94
2017-04-17T05:41:42.848Z,1015.93
2017-04-17T05:42:08.429Z,1015.94
2017-04-17T05:42:33.989Z,1015.94
2017-04-17T05:42:59.556Z,1015.96
2017-04-17T05:43:25.123Z,1015.95
2017-04-17T05:43:50.692Z,1015.95
2017-04-17T05:44:16.246Z,1015.95
2017-04-17T05:44:41.795Z,1015.9
2017-04-17T05:45:07.391Z,1015.96
2017-04-17T05:45:33.028Z,1015.94
2017-04-17T05:45:58.559Z,1015.92
2017-04-17T05:46:24.134Z,1015.92
2017-04-17T05:46:49.698Z,1015.92
2017-04-17T05:47:15.251Z,1015.93
2017-04-17T05:47:40.824Z,1015.94
2017-04-17T05:48:06.394Z,1015.96
2017-04-17T05:48:31.952Z,1015.94
2017-04-17T05:48:57.511Z,1015.91
2017-04-17T05:49:23.096Z,1015.97
2017-04-17T05:49:48.659Z,1015.95
2017-04-17T05:50:14.223Z,1015.94
2017-04-17T05:50:39.792Z,1015.97
2017-04-17T05:51:05.353Z,1015.98
2017-04-17T05:51:30.912Z,1015.97
2017-04-17T05:51:56.470Z,1015.96
2017-04-17T05:52:22.033Z,1015.96
2017-04-17T05:52:47.681Z,1015.96
2017-04-17T05:53:13.254Z,1015.95
2017-04-17T05:53:38.803Z,1016.01
2017-04-17T05:54:04.352Z,1015.97
2017-04-17T05:54:29.903Z,1015.97
2017-04-17T05:54:55.483Z,1015.97
2017-04-17T05:55:21.074Z,1015.99
2017-04-17T05:55:46.650Z,1015.98
2017-04-17T05:56:12.229Z,1016
2017-04-17T05:56:37.801Z,1016
2017-04-17T05:57:03.371Z,1015.99
2017-04-17T05:57:28.935Z,1015.98
2017-04-17T05:57:54.512Z,1015.96
2017-04-17T05:58:20.111Z,1016.05
2017-04-17T05:58:45.690Z,1016.03
2017-04-17T05:59:11.245Z,1015.97
2017-04-17T05:59:36.832Z,1015.96
2017-04-17T06:00:02.593Z,1015.98
2017-04-17T06:01:10.874Z,1015.99
2017-04-17T06:01:36.444Z,1015.99
2017-04-17T06:02:02.100Z,1016.04
2017-04-17T06:02:27.688Z,1016.05
2017-04-17T06:02:53.228Z,1016.07
2017-04-17T06:03:18.883Z,1016.07
2017-04-17T06:03:44.478Z,1016.12
2017-04-17T06:04:10.056Z,1016.17
2017-04-17T06:04:35.711Z,1016.12
2017-04-17T06:05:01.274Z,1016.12
2017-04-17T06:05:26.929Z,1016.14
2017-04-17T06:05:52.502Z,1016.17
2017-04-17T06:06:18.061Z,1016.16
2017-04-17T06:06:43.624Z,1016.17
2017-04-17T06:07:09.203Z,1016.17
2017-04-17T06:07:34.775Z,1016.15
2017-04-17T06:08:00.326Z,1016.03
2017-04-17T06:08:26.006Z,1016.14
2017-04-17T06:08:51.563Z,1016.09
2017-04-17T06:09:17.235Z,1016.09
2017-04-17T06:09:42.872Z,1016.09
2017-04-17T06:10:08.442Z,1016.09
2017-04-17T06:10:34.119Z,1016.15
2017-04-17T06:10:59.663Z,1016.14
2017-04-17T06:11:25.252Z,1016.19
2017-04-17T06:11:50.801Z,1016.18
2017-04-17T06:12:16.440Z,1016.15
2017-04-17T06:12:42.002Z,1016.18
2017-04-17T06:13:07.579Z,1016.22
2017-04-17T06:13:33.180Z,1016.15
2017-04-17T06:13:58.869Z,1016.15
2017-04-17T06:14:57.288Z,1016.12
2017-04-17T06:15:22.903Z,1016.16
2017-04-17T06:15:48.481Z,1016.15
2017-04-17T06:16:14.075Z,1016.13
2017-04-17T06:16:39.779Z,1016.19
2017-04-17T06:17:05.393Z,1016.14
2017-04-17T06:17:31.030Z,1016.12
2017-04-17T06:17:56.588Z,1016.14
2017-04-17T06:18:22.163Z,1016.17
2017-04-17T06:18:47.792Z,1016.15
2017-04-17T06:19:13.367Z,1016.16
2017-04-17T06:19:38.952Z,1016.11
2017-04-17T06:20:04.579Z,1016.17
2017-04-17T06:20:30.125Z,1016.14
2017-04-17T06:20:55.670Z,1016.13
2017-04-17T06:21:21.238Z,1016.14
2017-04-17T06:21:46.820Z,1016.12
2017-04-17T06:22:12.355Z,1016.13
2017-04-17T06:22:37.958Z,1016.16
2017-04-17T06:23:03.500Z,1016.15
2017-04-17T06:23:29.110Z,1016.19
2017-04-17T06:23:54.692Z,1016.14
2017-04-17T06:24:20.255Z,1016.16
2017-04-17T06:24:45.851Z,1016.15
2017-04-17T06:25:11.410Z,1016.16
2017-04-17T06:25:36.963Z,1016.14
2017-04-17T06:26:02.500Z,1016.18
2017-04-17T06:26:28.069Z,1016.14
2017-04-17T06:26:53.618Z,1016.16
2017-04-17T06:27:19.213Z,1016.13
2017-04-17T06:27:44.779Z,1016.14
2017-04-17T06:28:10.361Z,1016.15
2017-04-17T06:28:35.910Z,1016.13
2017-04-17T06:29:01.449Z,1016.15
2017-04-17T06:29:27.004Z,1016.17
2017-04-17T06:29:52.662Z,1016.13
2017-04-17T06:30:18.220Z,1016.09
2017-04-17T06:30:43.756Z,1016.13
2017-04-17T06:31:09.621Z,1016.13
2017-04-17T06:31:35.331Z,1016.16
2017-04-17T06:32:00.910Z,1016.13
2017-04-17T06:32:26.456Z,1016.14
2017-04-17T06:32:52.042Z,1016.09
2017-04-17T06:33:17.619Z,1016.09
2017-04-17T06:33:43.244Z,1016.09
2017-04-17T06:34:08.796Z,1016.08
2017-04-17T06:34:34.375Z,1016.1
2017-04-17T06:34:59.942Z,1016.1
2017-04-17T06:35:25.502Z,1016.09
2017-04-17T06:35:51.055Z,1016.07
2017-04-17T06:36:16.612Z,1016.08
2017-04-17T06:36:42.318Z,1016.11
2017-04-17T06:37:07.880Z,1016.11
2017-04-17T06:37:33.539Z,1016.14
2017-04-17T06:37:59.090Z,1016.11
2017-04-17T06:38:24.721Z,1016.13
2017-04-17T06:38:50.368Z,1016.14
2017-04-17T06:39:15.946Z,1016.13
2017-04-17T06:39:41.623Z,1016.14
2017-04-17T06:40:07.308Z,1016.1
2017-04-17T06:40:32.900Z,1016.14
2017-04-17T06:41:41.542Z,1016.16
2017-04-17T06:42:07.103Z,1016.12
2017-04-17T06:42:32.650Z,1016.1
2017-04-17T06:42:58.351Z,1016.09
2017-04-17T06:43:23.915Z,1016.09
2017-04-17T06:43:49.534Z,1016.11
2017-04-17T06:44:15.212Z,1016.12
2017-04-17T06:44:40.777Z,1016.11
2017-04-17T06:45:06.384Z,1016.12
2017-04-17T06:45:31.935Z,1016.11
2017-04-17T06:45:57.459Z,1016.12
2017-04-17T06:46:23.002Z,1016.1
2017-04-17T06:46:48.558Z,1016.16
2017-04-17T06:47:14.278Z,1016.09
2017-04-17T06:47:39.853Z,1016.08
2017-04-17T06:48:05.592Z,1016.1
2017-04-17T06:48:31.226Z,1016.1
2017-04-17T06:48:56.861Z,1016.12
2017-04-17T06:49:22.429Z,1016.11
2017-04-17T06:49:48.009Z,1016.12
2017-04-17T06:50:13.569Z,1016.11
2017-04-17T06:50:39.291Z,1016.11
2017-04-17T06:51:04.911Z,1016.11
2017-04-17T06:51:30.511Z,1016.09
2017-04-17T06:51:56.254Z,1016.1
2017-04-17T06:52:21.824Z,1016.1
2017-04-17T06:52:47.380Z,1016.1
2017-04-17T06:53:12.943Z,1016.1
2017-04-17T06:53:38.595Z,1016.1
2017-04-17T06:54:04.323Z,1016.1
2017-04-17T06:54:29.966Z,1016.14
2017-04-17T06:54:55.520Z,1016.11
2017-04-17T06:55:21.083Z,1016.08
2017-04-17T06:55:46.656Z,1016.14
2017-04-17T06:56:12.305Z,1016.14
2017-04-17T06:56:37.808Z,1016.08
2017-04-17T06:57:03.365Z,1016.06
2017-04-17T06:57:28.920Z,1016.12
2017-04-17T06:57:54.602Z,1016.08
2017-04-17T06:58:20.193Z,1016.12
2017-04-17T06:58:45.744Z,1016.11
2017-04-17T06:59:11.452Z,1016.13
2017-04-17T06:59:37.025Z,1016.16
2017-04-17T07:00:02.732Z,1016.14
2017-04-17T07:00:28.450Z,1016.13
2017-04-17T07:00:54.014Z,1016.13
2017-04-17T07:01:19.583Z,1016.14
2017-04-17T07:01:45.170Z,1016.19
2017-04-17T07:02:10.833Z,1016.15
2017-04-17T07:02:36.517Z,1016.19
2017-04-17T07:03:02.144Z,1016.16
2017-04-17T07:03:27.704Z,1016.23
2017-04-17T07:03:53.291Z,1016.17
2017-04-17T07:04:18.885Z,1016.2
2017-04-17T07:04:44.462Z,1016.21
2017-04-17T07:05:10.029Z,1016.2
2017-04-17T07:05:35.671Z,1016.21
2017-04-17T07:06:01.233Z,1016.26
2017-04-17T07:06:26.875Z,1016.25
2017-04-17T07:06:52.508Z,1016.28
2017-04-17T07:07:18.083Z,1016.22
2017-04-17T07:07:43.633Z,1016.28
2017-04-17T07:08:09.276Z,1016.25
2017-04-17T07:08:34.944Z,1016.29
2017-04-17T07:09:00.538Z,1016.29
2017-04-17T07:09:26.095Z,1016.31
2017-04-17T07:09:51.767Z,1016.26
2017-04-17T07:10:17.344Z,1016.24
2017-04-17T07:10:42.942Z,1016.26
2017-04-17T07:11:08.565Z,1016.25
2017-04-17T07:11:34.140Z,1016.28
2017-04-17T07:11:59.906Z,1016.28
2017-04-17T07:12:25.474Z,1016.24
2017-04-17T07:12:51.101Z,1016.29
2017-04-17T07:13:16.793Z,1016.28
2017-04-17T07:13:42.358Z,1016.3
2017-04-17T07:14:07.939Z,1016.3
2017-04-17T07:14:33.582Z,1016.29
2017-04-17T07:14:59.770Z,1016.28
2017-04-17T07:15:25.347Z,1016.28
2017-04-17T07:15:51.044Z,1016.3
2017-04-17T07:16:16.623Z,1016.28
2017-04-17T07:16:42.212Z,1016.21
2017-04-17T07:17:07.779Z,1016.3
2017-04-17T07:17:33.376Z,1016.25
2017-04-17T07:17:59.064Z,1016.26
2017-04-17T07:18:24.651Z,1016.29
2017-04-17T07:18:50.250Z,1016.29
2017-04-17T07:19:15.897Z,1016.29
2017-04-17T07:19:41.472Z,1016.27
2017-04-17T07:20:07.072Z,1016.26
2017-04-17T07:20:32.776Z,1016.26
2017-04-17T07:20:58.403Z,1016.23
2017-04-17T07:21:24.019Z,1016.28
2017-04-17T07:21:49.574Z,1016.27
2017-04-17T07:22:20.174Z,1016.26
2017-04-17T07:22:45.772Z,1016.24
2017-04-17T07:23:11.377Z,1016.24
2017-04-17T07:23:37.062Z,1016.28
2017-04-17T07:24:02.685Z,1016.29
2017-04-17T07:24:28.269Z,1016.28
2017-04-17T07:24:53.995Z,1016.28
2017-04-17T07:25:19.690Z,1016.29
2017-04-17T07:25:45.274Z,1016.29
2017-04-17T07:26:11.003Z,1016.28
2017-04-17T07:26:36.563Z,1016.27
2017-04-17T07:27:02.227Z,1016.28
2017-04-17T07:27:27.812Z,1016.25
2017-04-17T07:27:53.365Z,1016.32
2017-04-17T07:28:18.931Z,1016.24
2017-04-17T07:28:44.514Z,1016.24
2017-04-17T07:29:10.136Z,1016.29
2017-04-17T07:29:35.692Z,1016.25
2017-04-17T07:30:01.376Z,1016.28
2017-04-17T07:30:26.957Z,1016.26
2017-04-17T07:30:52.530Z,1016.23
2017-04-17T07:31:18.333Z,1016.21
2017-04-17T07:31:43.943Z,1016.22
2017-04-17T07:32:09.507Z,1016.26
2017-04-17T07:33:18.176Z,1016.26
2017-04-17T07:33:43.778Z,1016.25
2017-04-17T07:34:09.361Z,1016.24
2017-04-17T07:34:34.910Z,1016.24
2017-04-17T07:35:00.463Z,1016.23
2017-04-17T07:35:26.053Z,1016.24
2017-04-17T07:35:51.643Z,1016.23
2017-04-17T07:36:17.206Z,1016.21
2017-04-17T07:36:42.755Z,1016.23
2017-04-17T07:37:08.410Z,1016.23
2017-04-17T07:37:33.984Z,1016.25
2017-04-17T07:37:59.572Z,1016.21
2017-04-17T07:38:25.134Z,1016.19
2017-04-17T07:38:50.833Z,1016.21
2017-04-17T07:39:16.459Z,1016.19
2017-04-17T07:39:42.009Z,1016.19
2017-04-17T07:40:07.580Z,1016.2
2017-04-17T07:40:33.254Z,1016.21
2017-04-17T07:40:58.813Z,1016.23
2017-04-17T07:41:24.507Z,1016.25
2017-04-17T07:41:50.069Z,1016.2
2017-04-17T07:42:15.637Z,1016.22
2017-04-17T07:42:41.217Z,1016.25
2017-04-17T07:43:06.781Z,1016.28
2017-04-17T07:43:32.338Z,1016.24
2017-04-17T07:44:04.494Z,1016.29
2017-04-17T07:44:30.063Z,1016.21
2017-04-17T07:44:55.658Z,1016.25
2017-04-17T07:45:21.681Z,1016.24
2017-04-17T07:45:47.244Z,1016.28
2017-04-17T07:46:13.498Z,1016.25
2017-04-17T07:46:39.053Z,1016.28
2017-04-17T07:47:05.292Z,1016.24
2017-04-17T07:47:30.870Z,1016.28
2017-04-17T07:47:56.451Z,1016.32
2017-04-17T07:48:22.688Z,1016.32
2017-04-17T07:48:48.243Z,1016.34
2017-04-17T07:49:14.511Z,1016.29
2017-04-17T07:49:40.173Z,1016.33
2017-04-17T07:50:05.822Z,1016.46
2017-04-17T07:51:09.850Z,1016.43
2017-04-17T07:53:17.224Z,1016.39
2017-04-17T07:53:42.831Z,1016.4
2017-04-17T07:55:33.343Z,1016.46
2017-04-17T07:55:58.911Z,1016.43
2017-04-17T07:56:24.471Z,1016.42
2017-04-17T07:56:50.076Z,1016.44
2017-04-17T07:57:15.651Z,1016.41
2017-04-17T07:57:41.202Z,1016.5
2017-04-17T07:58:11.795Z,1016.48
2017-04-17T07:58:37.371Z,1016.42
2017-04-17T07:59:02.933Z,1016.4
2017-04-17T07:59:29.161Z,1016.42
2017-04-17T07:59:54.858Z,1016.38
2017-04-17T08:00:21.012Z,1016.38
2017-04-17T08:00:46.581Z,1016.41
2017-04-17T08:01:12.150Z,1016.33
2017-04-17T08:01:38.323Z,1016.34
2017-04-17T08:02:03.884Z,1016.33
2017-04-17T08:02:30.117Z,1016.31
2017-04-17T08:02:55.670Z,1016.28
2017-04-17T08:03:21.869Z,1016.28
2017-04-17T08:03:47.450Z,1016.3
2017-04-17T08:04:13.023Z,1016.26
2017-04-17T08:04:39.259Z,1016.26
2017-04-17T08:05:04.842Z,1016.25
2017-04-17T08:05:31.041Z,1016.28
2017-04-17T08:05:56.788Z,1016.29
2017-04-17T08:06:22.330Z,1016.23
2017-04-17T08:06:48.401Z,1016.27
2017-04-17T08:07:14.039Z,1016.27
2017-04-17T08:07:40.178Z,1016.21
2017-04-17T08:08:05.732Z,1016.28
2017-04-17T08:08:32.030Z,1016.25
2017-04-17T08:08:57.559Z,1016.3
2017-04-17T08:09:23.124Z,1016.29
2017-04-17T08:09:49.394Z,1016.27
2017-04-17T08:10:14.976Z,1016.26
2017-04-17T08:10:41.160Z,1016.29
2017-04-17T08:11:06.804Z,1016.27
2017-04-17T08:11:32.364Z,1016.27
2017-04-17T08:11:58.530Z,1016.27
2017-04-17T08:12:24.084Z,1016.27
2017-04-17T08:12:50.309Z,1016.27
2017-04-17T08:13:15.876Z,1016.24
2017-04-17T08:13:42.048Z,1016.26
2017-04-17T08:14:07.630Z,1016.28
2017-04-17T08:14:33.310Z,1016.25
2017-04-17T08:14:59.434Z,1016.26
2017-04-17T08:15:24.986Z,1016.22
2017-04-17T08:15:51.232Z,1016.26
2017-04-17T08:16:16.993Z,1016.23
2017-04-17T08:16:42.561Z,1016.3
2017-04-17T08:17:08.627Z,1016.28
2017-04-17T08:17:34.273Z,1016.21
2017-04-17T08:18:00.376Z,1016.23
2017-04-17T08:18:25.931Z,1016.24
2017-04-17T08:18:52.138Z,1016.25
2017-04-17T08:19:17.714Z,1016.21
2017-04-17T08:19:43.382Z,1016.22
2017-04-17T08:20:09.526Z,1016.22
2017-04-17T08:20:35.090Z,1016.25